Time;durP1;ratioP1;P1;durP2;ratioP2;P2;SDS_P1;SDS_P2;PMS_P1;PMS_P2;Temp;Humidity;BMP_temperature;BMP_pressure;BME280_temperature;BME280_humidity;BME280_pressure;Samples;Min_cycle;Max_cycle;Signal;HPM_P1;HPM_P2
2021/04/16 00:01:35;;;;;;;;;;;;;;;-144.99;57.33;52397.13;5006456;28;19976;-72
2021/04/16 00:04:01;;;;;;;;;;;;;;;-144.99;57.51;52380.84;5008199;28;19962;-71
2021/04/16 00:06:27;;;;;;;;;;;;;;;-144.99;57.54;52384.91;5002748;28;20445;-71
2021/04/16 00:08:54;;;;;;;;;;;;;;;-144.99;57.82;52348.22;5007490;28;20468;-71
2021/04/16 00:11:22;;;;;;;;;;;;;;;-144.99;58.04;52366.56;5007615;28;19977;-72
2021/04/16 00:13:48;;;;;;;;;;;;;;;-144.99;58.16;52393.06;5010992;28;20026;-70
2021/04/16 00:16:16;;;;;;;;;;;;;;;-144.99;58.63;52370.63;5008904;28;19993;-71
2021/04/16 00:18:42;;;;;;;;;;;;;;;-144.99;58.54;52366.56;5008927;28;19993;-72
2021/04/16 00:21:08;;;;;;;;;;;;;;;-144.99;58.83;52366.56;5009558;28;20088;-72
2021/04/16 00:23:34;;;;;;;;;;;;;;;-144.99;58.86;52391.03;5008178;28;20406;-71
2021/04/16 00:26:01;;;;;;;;;;;;;;;-144.99;59.19;52378.78;5010324;28;20003;-73
2021/04/16 00:28:27;;;;;;;;;;;;;;;-144.99;59.25;52382.88;5004114;28;19984;-70
2021/04/16 00:30:54;;;;;;;;;;;;;;;-144.99;59.38;52374.72;5008020;28;20245;-71
2021/04/16 00:33:19;;;;;;;;;;;;;;;-144.99;59.55;52370.63;5010701;28;20643;-73
2021/04/16 00:35:46;;;;;;;;;;;;;;;-144.99;59.78;52382.88;5010570;28;20221;-72
2021/04/16 00:38:13;;;;;;;;;;;;;;;-144.99;59.83;52382.88;5008625;28;20532;-71
2021/04/16 00:40:40;;;;;;;;;;;;;;;-144.99;59.78;52401.22;5005572;28;19979;-72
2021/04/16 00:43:07;;;;;;;;;;;;;;;-144.99;59.98;52382.88;5003103;28;20075;-72
2021/04/16 00:45:34;;;;;;;;;;;;;;;-144.99;60.21;52370.63;5008683;28;19974;-73
2021/04/16 00:48:01;;;;;;;;;;;;;;;-144.99;60.30;52374.72;5003643;28;19993;-71
2021/04/16 00:50:29;;;;;;;;;;;;;;;-144.99;60.22;52368.59;5010314;28;20203;-71
2021/04/16 00:52:54;;;;;;;;;;;;;;;-144.99;60.30;52419.56;5001031;28;19984;-71
2021/04/16 00:55:22;;;;;;;;;;;;;;;-144.99;60.23;52391.03;5009785;28;20428;-72
2021/04/16 00:57:48;;;;;;;;;;;;;;;-144.99;60.24;52384.91;4999730;28;19996;-74
2021/04/16 01:00:16;;;;;;;;;;;;;;;-144.99;60.44;52413.44;4996758;28;20004;-72
2021/04/16 01:02:41;;;;;;;;;;;;;;;-144.99;60.46;52346.19;5009510;28;19981;-73
2021/04/16 01:05:08;;;;;;;;;;;;;;;-144.99;60.50;52372.69;5010076;28;20427;-73
2021/04/16 01:07:34;;;;;;;;;;;;;;;-144.99;60.43;52407.31;5008802;28;19977;-74
2021/04/16 01:10:00;;;;;;;;;;;;;;;-144.99;60.32;52370.63;5007937;28;20370;-74
2021/04/16 01:12:26;;;;;;;;;;;;;;;-144.99;60.39;52374.72;5009837;28;20361;-75
2021/04/16 01:15:02;;;;;;;;;;;;;;;-144.99;60.50;52350.25;5008008;28;19975;-72
2021/04/16 01:17:29;;;;;;;;;;;;;;;-144.99;60.65;52386.94;5001282;28;20027;-75
2021/04/16 01:20:00;;;;;;;;;;;;;;;-144.99;60.75;52342.09;5007549;28;19977;-72
2021/04/16 01:22:28;;;;;;;;;;;;;;;-144.99;60.73;52407.31;5009861;28;20027;-73
2021/04/16 01:24:56;;;;;;;;;;;;;;;-144.99;60.73;52338.03;5013085;28;19980;-73
2021/04/16 01:27:22;;;;;;;;;;;;;;;-144.99;60.84;52374.72;5012096;28;20366;-73
2021/04/16 01:29:47;;;;;;;;;;;;;;;-144.99;60.99;52374.72;5008229;28;19988;-73
2021/04/16 01:32:20;;;;;;;;;;;;;;;-144.99;61.12;52391.03;5011653;28;19981;-73
2021/04/16 01:34:46;;;;;;;;;;;;;;;-144.99;61.18;52395.09;5012873;28;19980;-74
2021/04/16 01:37:11;;;;;;;;;;;;;;;-144.99;61.40;52384.91;5010892;28;19989;-72
2021/04/16 01:39:37;;;;;;;;;;;;;;;-144.99;61.48;52338.03;5005169;28;19988;-72
2021/04/16 01:42:04;;;;;;;;;;;;;;;-144.99;61.67;52382.88;5006541;28;19968;-72
2021/04/16 01:44:31;;;;;;;;;;;;;;;-144.99;61.84;52411.41;5005991;28;19968;-73
2021/04/16 01:46:59;;;;;;;;;;;;;;;-144.99;61.99;52362.50;5010420;28;20490;-73
2021/04/16 01:49:25;;;;;;;;;;;;;;;-144.99;62.05;52399.19;5010853;28;19993;-73
2021/04/16 01:51:51;;;;;;;;;;;;;;;-144.99;62.23;52374.72;5012491;28;19973;-72
2021/04/16 01:54:25;;;;;;;;;;;;;;;-144.99;62.21;52382.88;5000542;28;19974;-71
2021/04/16 01:56:52;;;;;;;;;;;;;;;-144.99;62.26;52370.63;5008678;28;19988;-73
2021/04/16 01:59:19;;;;;;;;;;;;;;;-144.99;62.33;52395.09;5008398;28;19985;-72
2021/04/16 02:01:45;;;;;;;;;;;;;;;-144.99;62.57;52370.63;5003306;28;20004;-72
2021/04/16 02:04:11;;;;;;;;;;;;;;;-144.99;62.39;52342.09;5012945;28;19982;-72
2021/04/16 02:06:37;;;;;;;;;;;;;;;-144.99;62.42;52378.78;5012534;28;20004;-72
2021/04/16 02:09:05;;;;;;;;;;;;;;;-144.99;62.56;52388.97;5011141;28;20403;-73
2021/04/16 02:11:31;;;;;;;;;;;;;;;-144.99;62.53;52358.41;5013636;28;20019;-73
2021/04/16 02:13:57;;;;;;;;;;;;;;;-144.99;62.54;52358.41;5011318;28;21539;-72
2021/04/16 02:16:23;;;;;;;;;;;;;;;-144.99;62.50;52352.28;5008152;28;19988;-74
2021/04/16 02:18:51;;;;;;;;;;;;;;;-144.99;62.71;52403.25;5007938;28;19989;-72
2021/04/16 02:21:17;;;;;;;;;;;;;;;-144.99;62.65;52356.38;5011691;28;20039;-72
2021/04/16 02:23:42;;;;;;;;;;;;;;;-144.99;62.71;52362.50;5011416;28;20402;-72
2021/04/16 02:26:08;;;;;;;;;;;;;;;-144.99;62.84;52358.41;5011887;28;19979;-71
2021/04/16 02:28:34;;;;;;;;;;;;;;;-144.99;62.93;52362.50;5009313;28;19984;-72
2021/04/16 02:31:00;;;;;;;;;;;;;;;-144.99;62.97;52391.03;5010443;28;20063;-72
2021/04/16 02:33:26;;;;;;;;;;;;;;;-144.99;63.13;52362.50;5012373;28;19978;-73
2021/04/16 02:35:52;;;;;;;;;;;;;;;-144.99;63.18;52354.34;5011278;28;20460;-73
2021/04/16 02:38:18;;;;;;;;;;;;;;;-144.99;63.19;52368.59;5011529;28;19997;-72
2021/04/16 02:40:44;;;;;;;;;;;;;;;-144.99;63.28;52354.34;5011493;28;19980;-74
2021/04/16 02:43:10;;;;;;;;;;;;;;;-144.99;63.45;52391.03;5005241;28;20399;-72
2021/04/16 02:45:35;;;;;;;;;;;;;;;-144.99;63.46;52386.94;5010591;28;19977;-73
2021/04/16 02:48:01;;;;;;;;;;;;;;;-144.99;63.59;52384.91;5007450;28;19993;-72
2021/04/16 02:50:30;;;;;;;;;;;;;;;-144.99;63.66;52325.81;5009854;28;20031;-72
2021/04/16 02:52:57;;;;;;;;;;;;;;;-144.99;63.89;52382.88;5008217;28;19974;-72
2021/04/16 02:55:22;;;;;;;;;;;;;;;-144.99;64.07;52378.78;5005231;28;19993;-72
2021/04/16 02:57:48;;;;;;;;;;;;;;;-144.99;64.11;52350.25;5010947;28;19985;-73
2021/04/16 03:00:15;;;;;;;;;;;;;;;-144.99;64.17;52378.78;5008798;28;20084;-72
2021/04/16 03:02:41;;;;;;;;;;;;;;;-144.99;64.39;52374.72;5008413;28;19974;-73
2021/04/16 03:05:08;;;;;;;;;;;;;;;-144.99;64.59;52362.50;5010472;28;19990;-74
2021/04/16 03:07:34;;;;;;;;;;;;;;;-144.99;64.64;52386.94;5010877;28;19972;-74
2021/04/16 03:10:00;;;;;;;;;;;;;;;-144.99;64.63;52360.44;5016781;28;20439;-72
2021/04/16 03:12:26;;;;;;;;;;;;;;;-144.99;64.66;52346.19;5008934;28;20079;-75
2021/04/16 03:14:52;;;;;;;;;;;;;;;-144.99;64.93;52366.56;5011769;28;20009;-74
2021/04/16 03:17:17;;;;;;;;;;;;;;;-144.99;64.83;52395.09;5012089;28;20110;-74
2021/04/16 03:19:43;;;;;;;;;;;;;;;-144.99;65.01;52380.84;5019375;28;20183;-74
2021/04/16 03:22:09;;;;;;;;;;;;;;;-144.99;64.99;52395.09;5003915;28;19982;-73
2021/04/16 03:24:36;;;;;;;;;;;;;;;-144.99;64.96;52374.72;5011781;28;19956;-74
2021/04/16 03:27:02;;;;;;;;;;;;;;;-144.99;65.23;52342.09;5007562;28;19981;-72
2021/04/16 03:29:27;;;;;;;;;;;;;;;-144.99;65.39;52376.75;5011342;28;20439;-73
2021/04/16 03:31:53;;;;;;;;;;;;;;;-144.99;65.36;52378.78;5007502;28;20069;-73
2021/04/16 03:34:19;;;;;;;;;;;;;;;-144.99;65.46;52382.88;5006010;28;19974;-71
2021/04/16 03:36:45;;;;;;;;;;;;;;;-144.99;65.50;52395.09;5009468;28;20123;-71
2021/04/16 03:39:12;;;;;;;;;;;;;;;-144.99;65.58;52362.50;5010898;28;20471;-74
2021/04/16 03:41:39;;;;;;;;;;;;;;;-144.99;65.58;52346.19;5010081;28;20407;-74
2021/04/16 03:44:05;;;;;;;;;;;;;;;-144.99;65.62;52405.28;5004753;28;19973;-72
2021/04/16 03:46:31;;;;;;;;;;;;;;;-144.99;65.49;52403.25;5003016;28;20436;-72
2021/04/16 03:48:57;;;;;;;;;;;;;;;-144.99;65.53;52354.34;4991831;28;537389;-71
2021/04/16 03:51:22;;;;;;;;;;;;;;;-144.99;65.68;52378.78;5010518;28;19989;-73
2021/04/16 03:53:48;;;;;;;;;;;;;;;-144.99;65.59;52382.88;5001431;28;19981;-71
2021/04/16 03:56:15;;;;;;;;;;;;;;;-144.99;65.79;52403.25;5007731;28;19986;-71
2021/04/16 03:58:42;;;;;;;;;;;;;;;-144.99;65.73;52346.19;5010254;28;20011;-72
2021/04/16 04:01:10;;;;;;;;;;;;;;;-144.99;65.79;52325.81;5009468;28;19974;-72
2021/04/16 04:03:36;;;;;;;;;;;;;;;-144.99;65.81;52395.09;5009451;28;19982;-73
2021/04/16 04:06:02;;;;;;;;;;;;;;;-144.99;66.00;52386.94;5006988;28;20059;-73
2021/04/16 04:08:28;;;;;;;;;;;;;;;-144.99;66.14;52374.72;5006232;28;19989;-74
2021/04/16 04:10:54;;;;;;;;;;;;;;;-144.99;66.32;52380.84;5008908;28;20000;-74
2021/04/16 04:13:20;;;;;;;;;;;;;;;-144.99;66.41;52411.41;5009300;28;20016;-74
2021/04/16 04:15:46;;;;;;;;;;;;;;;-144.99;66.62;52368.59;5002720;28;20459;-71
2021/04/16 04:18:12;;;;;;;;;;;;;;;-144.99;66.66;52348.22;5007897;28;19994;-72
2021/04/16 04:20:39;;;;;;;;;;;;;;;-144.99;66.96;52384.91;5006042;28;19980;-71
2021/04/16 04:23:05;;;;;;;;;;;;;;;-144.99;67.06;52352.28;5010115;28;19981;-73
2021/04/16 04:25:32;;;;;;;;;;;;;;;-144.99;67.08;52370.63;5006672;28;19974;-71
2021/04/16 04:27:58;;;;;;;;;;;;;;;-144.99;67.46;52325.81;5007838;28;20535;-73
2021/04/16 04:30:25;;;;;;;;;;;;;;;-144.99;67.54;52344.16;5006745;28;20535;-73
2021/04/16 04:32:52;;;;;;;;;;;;;;;-144.99;67.52;52356.38;5010077;28;20024;-71
2021/04/16 04:35:19;;;;;;;;;;;;;;;-144.99;67.79;52417.53;5010043;28;20127;-72
2021/04/16 04:37:44;;;;;;;;;;;;;;;-144.99;67.90;52333.94;5008216;28;19973;-76
2021/04/16 04:40:11;;;;;;;;;;;;;;;-144.99;68.22;52358.41;5011065;28;20001;-72
2021/04/16 04:42:37;;;;;;;;;;;;;;;-144.99;68.30;52358.41;5004055;28;20005;-72
2021/04/16 04:45:03;;;;;;;;;;;;;;;-144.99;68.43;52382.88;5012414;28;19988;-76
2021/04/16 04:47:29;;;;;;;;;;;;;;;-144.99;68.55;52368.59;5008781;28;19969;-73
2021/04/16 04:49:56;;;;;;;;;;;;;;;-144.99;68.64;52354.34;5008384;28;20353;-72
2021/04/16 04:52:34;;;;;;;;;;;;;;;-144.99;68.73;52354.34;5006397;28;19970;-73
2021/04/16 04:55:02;;;;;;;;;;;;;;;-144.99;68.92;52325.81;5007448;28;19973;-75
2021/04/16 04:57:29;;;;;;;;;;;;;;;-144.99;69.07;52358.41;5004387;28;19970;-75
2021/04/16 04:59:55;;;;;;;;;;;;;;;-144.99;69.29;52384.91;5010368;28;19974;-73
2021/04/16 05:02:22;;;;;;;;;;;;;;;-144.99;69.29;52356.38;5014836;28;20300;-75
2021/04/16 05:04:48;;;;;;;;;;;;;;;-144.99;69.66;52354.34;5014426;28;20440;-74
2021/04/16 05:07:15;;;;;;;;;;;;;;;-144.99;69.59;52342.09;5014562;28;20016;-75
2021/04/16 05:09:40;;;;;;;;;;;;;;;-144.99;69.80;52354.34;5004779;28;20452;-73
2021/04/16 05:12:07;;;;;;;;;;;;;;;-144.99;69.88;52313.56;5009804;28;19980;-74
2021/04/16 05:14:33;;;;;;;;;;;;;;;-144.99;70.19;52374.72;5013602;28;20055;-75
2021/04/16 05:16:59;;;;;;;;;;;;;;;-144.99;70.16;52366.56;5012448;28;20450;-75
2021/04/16 05:19:25;;;;;;;;;;;;;;;-144.99;70.20;52362.50;5011778;28;19990;-75
2021/04/16 05:21:54;;;;;;;;;;;;;;;-144.99;70.53;52374.72;5012531;28;20481;-74
2021/04/16 05:24:21;;;;;;;;;;;;;;;-144.99;70.46;52366.56;5005730;28;20420;-70
2021/04/16 05:26:46;;;;;;;;;;;;;;;-144.99;70.16;52366.56;5012571;28;19982;-73
2021/04/16 05:29:12;;;;;;;;;;;;;;;-144.99;70.23;52370.63;5011879;28;19996;-72
2021/04/16 05:31:38;;;;;;;;;;;;;;;-144.99;70.28;52333.94;5013730;28;19974;-74
2021/04/16 05:34:04;;;;;;;;;;;;;;;-144.99;70.17;52323.75;5013358;28;19973;-75
2021/04/16 05:36:30;;;;;;;;;;;;;;;-144.99;70.37;52336.00;5012418;28;20005;-74
2021/04/16 05:38:56;;;;;;;;;;;;;;;-144.99;70.07;52342.09;5010379;28;20017;-74
2021/04/16 05:41:23;;;;;;;;;;;;;;;-144.99;69.94;52338.03;5008054;28;20047;-72
2021/04/16 05:43:49;;;;;;;;;;;;;;;-144.99;70.07;52313.56;5004934;28;19974;-75
2021/04/16 05:46:16;;;;;;;;;;;;;;;-144.99;70.23;52333.94;5004179;28;20407;-72
2021/04/16 05:48:42;;;;;;;;;;;;;;;-144.99;70.19;52333.94;5013162;28;20359;-73
2021/04/16 05:51:08;;;;;;;;;;;;;;;-144.99;70.15;52407.31;5011654;28;19980;-75
2021/04/16 05:53:33;;;;;;;;;;;;;;;-144.99;70.15;52329.88;5011065;28;19970;-73
2021/04/16 05:55:59;;;;;;;;;;;;;;;-144.99;70.28;52382.88;5009614;28;20437;-75
2021/04/16 05:58:26;;;;;;;;;;;;;;;-144.99;70.32;52338.03;5011479;28;19994;-74
2021/04/16 06:00:52;;;;;;;;;;;;;;;-144.99;70.23;52350.25;5010477;28;20072;-72
2021/04/16 06:03:18;;;;;;;;;;;;;;;-144.99;70.29;52354.34;5011967;28;19970;-74
2021/04/16 06:05:44;;;;;;;;;;;;;;;-144.99;70.29;52362.50;5009807;28;19973;-77
2021/04/16 06:08:10;;;;;;;;;;;;;;;-144.99;70.33;52331.91;5012449;28;20174;-76
2021/04/16 06:10:36;;;;;;;;;;;;;;;-144.99;70.33;52364.53;5010281;28;20137;-75
2021/04/16 06:13:02;;;;;;;;;;;;;;;-144.99;70.28;52325.81;5008757;28;20020;-76
2021/04/16 06:15:29;;;;;;;;;;;;;;;-144.99;70.37;52329.88;5007722;28;20451;-76
2021/04/16 06:17:55;;;;;;;;;;;;;;;-144.99;70.35;52333.94;5010887;28;20466;-76
2021/04/16 06:20:23;;;;;;;;;;;;;;;-144.99;70.57;52342.09;5011482;28;20480;-74
2021/04/16 06:22:49;;;;;;;;;;;;;;;-144.99;71.83;52329.88;5009012;28;19967;-73
2021/04/16 06:25:16;;;;;;;;;;;;;;;-144.99;71.32;52331.91;5007376;28;19958;-74
2021/04/16 06:27:42;;;;;;;;;;;;;;;-144.99;71.69;52374.72;5013718;28;20026;-76
2021/04/16 06:30:08;;;;;;;;;;;;;;;-144.99;71.03;52313.56;5013113;28;20362;-74
2021/04/16 06:32:35;;;;;;;;;;;;;;;-144.99;71.61;52340.06;5013117;28;20399;-74
2021/04/16 06:35:01;;;;;;;;;;;;;;;-144.99;71.87;52305.41;5013293;28;19925;-74
2021/04/16 06:37:27;;;;;;;;;;;;;;;-144.99;71.95;52329.88;5012574;28;19968;-76
2021/04/16 06:39:53;;;;;;;;;;;;;;;-144.99;71.93;52266.69;5014401;28;19931;-76
2021/04/16 06:42:21;;;;;;;;;;;;;;;-144.99;71.63;52289.13;5013384;28;19921;-75
2021/04/16 06:44:48;;;;;;;;;;;;;;;-144.99;70.24;52299.31;5003609;28;19925;-74
2021/04/16 06:47:18;;;;;;;;;;;;;;;-144.99;70.09;52293.19;5013109;28;19928;-75
2021/04/16 06:49:45;;;;;;;;;;;;;;;-144.99;69.12;52285.03;5019022;28;20028;-78
2021/04/16 06:52:13;;;;;;;;;;;;;;;-144.99;68.48;52309.50;5008931;28;20102;-77
2021/04/16 06:54:46;;;;;;;;;;;;;;;-144.99;68.09;52301.34;5000316;28;19997;-80
2021/04/16 06:57:21;;;;;;;;;;;;;;;-144.99;67.59;52301.34;5016888;28;20053;-78
2021/04/16 06:59:54;;;;;;;;;;;;;;;-144.99;66.89;52293.19;5014943;28;19993;-78
2021/04/16 07:02:23;;;;;;;;;;;;;;;-144.99;66.27;52285.03;5013478;28;19993;-76
2021/04/16 07:04:52;;;;;;;;;;;;;;;-144.99;65.88;52285.03;5019897;28;20165;-77
2021/04/16 07:07:22;;;;;;;;;;;;;;;-144.99;65.68;52280.97;5019897;28;20013;-78
2021/04/16 07:09:51;;;;;;;;;;;;;;;-144.99;65.44;52276.88;5019583;28;19990;-77
2021/04/16 07:12:19;;;;;;;;;;;;;;;-144.99;65.24;52309.50;5018656;28;19977;-78
2021/04/16 07:14:46;;;;;;;;;;;;;;;-144.99;64.78;52236.13;5020187;28;19973;-77
2021/04/16 07:17:16;;;;;;;;;;;;;;;-144.99;65.49;52293.19;5013363;28;20182;-76
2021/04/16 07:19:42;;;;;;;;;;;;;;;-144.99;64.71;52289.13;5010354;28;19987;-75
2021/04/16 07:22:20;;;;;;;;;;;;;;;-144.99;63.77;52301.34;5003780;28;22212;-76
2021/04/16 07:24:47;;;;;;;;;;;;;;;-144.99;63.02;52252.44;5012871;28;19966;-76
2021/04/16 07:27:18;;;;;;;;;;;;;;;-144.99;62.59;52276.88;5012164;28;20032;-77
2021/04/16 07:29:46;;;;;;;;;;;;;;;-144.99;61.23;52289.13;5009413;28;19998;-77
2021/04/16 07:32:22;;;;;;;;;;;;;;;-144.99;60.16;52309.50;5011387;28;20017;-75
2021/04/16 07:34:48;;;;;;;;;;;;;;;-144.99;58.67;52252.44;5009635;28;20024;-78
2021/04/16 07:37:17;;;;;;;;;;;;;;;-144.99;57.91;52264.66;5011810;28;19980;-76
2021/04/16 07:39:47;;;;;;;;;;;;;;;-144.99;57.21;52248.34;5010108;28;19966;-76
2021/04/16 07:42:36;;;;;;;;;;;;;;;-144.99;56.96;52227.97;5012362;28;19928;-76
2021/04/16 07:45:07;;;;;;;;;;;;;;;-144.99;56.28;52252.44;5005003;28;19953;-76
2021/04/16 07:47:33;;;;;;;;;;;;;;;-144.99;55.72;52268.72;5008483;28;19936;-75
2021/04/16 07:50:02;;;;;;;;;;;;;;;-144.99;56.13;52268.72;5004173;28;20319;-76
2021/04/16 07:52:31;;;;;;;;;;;;;;;-144.99;53.16;52232.03;5012238;28;19960;-77
2021/04/16 07:55:14;;;;;;;;;;;;;;;-144.99;53.07;52244.28;5005464;28;20012;-77
2021/04/16 07:57:41;;;;;;;;;;;;;;;-144.99;51.50;52268.72;5011310;28;20012;-78
2021/04/16 08:00:10;;;;;;;;;;;;;;;-144.99;51.11;52252.44;5003065;28;20367;-78
2021/04/16 08:02:37;;;;;;;;;;;;;;;-144.99;48.96;52262.63;5006931;28;19925;-76
2021/04/16 08:05:14;;;;;;;;;;;;;;;-144.99;48.87;52227.97;5011368;28;19925;-75
2021/04/16 08:07:41;;;;;;;;;;;;;;;-144.99;48.53;52280.97;5011315;28;19980;-75
2021/04/16 08:10:13;;;;;;;;;;;;;;;-144.99;48.39;52240.19;5010413;28;19922;-75
2021/04/16 08:12:39;;;;;;;;;;;;;;;-144.99;47.22;52244.28;5006424;28;19921;-77
2021/04/16 08:15:12;;;;;;;;;;;;;;;-144.99;46.28;52234.09;5012350;28;19925;-75
2021/04/16 08:17:40;;;;;;;;;;;;;;;-144.99;45.16;52264.66;5009689;28;19932;-75
2021/04/16 08:20:18;;;;;;;;;;;;;;;-144.99;44.84;52268.72;5010095;28;19921;-78
2021/04/16 08:22:45;;;;;;;;;;;;;;;-144.99;45.25;52256.50;5005879;28;19932;-76
2021/04/16 08:25:13;;;;;;;;;;;;;;;-144.99;44.45;52276.88;5006324;28;19940;-76
2021/04/16 08:27:40;;;;;;;;;;;;;;;-144.99;44.30;52250.38;5006429;28;19980;-76
2021/04/16 08:30:08;;;;;;;;;;;;;;;-144.99;43.90;52256.50;5007953;28;19928;-75
2021/04/16 08:32:38;;;;;;;;;;;;;;;-144.99;43.76;52240.19;5008546;28;19928;-74
2021/04/16 08:35:06;;;;;;;;;;;;;;;-144.99;42.27;52264.66;5015926;28;19929;-78
2021/04/16 08:37:35;;;;;;;;;;;;;;;-144.99;42.76;52227.97;5015371;28;19928;-77
2021/04/16 08:40:02;;;;;;;;;;;;;;;-144.99;42.92;52268.72;5015787;28;19925;-76
2021/04/16 08:42:30;;;;;;;;;;;;;;;-144.99;42.71;52285.03;5015379;28;20027;-76
2021/04/16 08:45:00;;;;;;;;;;;;;;;-144.99;43.28;52236.13;5014332;28;20007;-74
2021/04/16 08:47:28;;;;;;;;;;;;;;;-144.99;42.26;52244.28;5014519;28;19976;-76
2021/04/16 08:49:54;;;;;;;;;;;;;;;-144.99;42.58;52244.28;5014939;28;19925;-77
2021/04/16 08:52:23;;;;;;;;;;;;;;;-144.99;42.44;52260.56;5011502;28;20380;-74
2021/04/16 08:54:51;;;;;;;;;;;;;;;-144.99;41.91;52223.88;5006069;28;19947;-75
2021/04/16 08:57:19;;;;;;;;;;;;;;;-144.99;40.98;52266.69;5014794;28;20395;-80
2021/04/16 08:59:51;;;;;;;;;;;;;;;-144.99;40.04;52219.81;5011369;28;20012;-78
2021/04/16 09:02:18;;;;;;;;;;;;;;;-144.99;40.52;52256.50;5004813;28;20072;-76
2021/04/16 09:04:49;;;;;;;;;;;;;;;-144.99;40.68;52215.75;5010093;28;19944;-78
2021/04/16 09:07:28;;;;;;;;;;;;;;;-144.99;40.22;52211.66;5006748;28;20061;-76
2021/04/16 09:09:56;;;;;;;;;;;;;;;-144.99;40.19;52258.53;5012401;28;19928;-76
2021/04/16 09:12:40;;;;;;;;;;;;;;;-144.99;41.05;52227.97;5010667;28;19922;-76
2021/04/16 09:15:26;;;;;;;;;;;;;;;-144.99;40.17;52264.66;5014012;28;20292;-76
2021/04/16 09:18:06;;;;;;;;;;;;;;;-144.99;39.15;52223.88;5004091;28;20008;-77
2021/04/16 09:20:46;;;;;;;;;;;;;;;-144.99;38.88;52211.66;5012046;28;19926;-74
2021/04/16 09:23:19;;;;;;;;;;;;;;;-144.99;38.66;52201.47;5012714;28;19927;-75
2021/04/16 09:25:47;;;;;;;;;;;;;;;-144.99;38.21;52242.22;5010500;28;19925;-76
2021/04/16 09:28:31;;;;;;;;;;;;;;;-144.99;38.31;52215.75;5008106;28;20035;-76
2021/04/16 09:31:00;;;;;;;;;;;;;;;-144.99;37.20;52223.88;4999293;28;19925;-74
2021/04/16 09:33:26;;;;;;;;;;;;;;;-144.99;36.48;52260.56;5006661;28;19922;-75
2021/04/16 09:35:57;;;;;;;;;;;;;;;-144.99;36.89;52219.81;5012235;28;19926;-75
2021/04/16 09:38:28;;;;;;;;;;;;;;;-144.99;37.27;52201.47;5014272;28;19925;-75
2021/04/16 09:41:06;;;;;;;;;;;;;;;-144.99;36.42;52207.59;5012292;28;19922;-74
2021/04/16 09:43:33;;;;;;;;;;;;;;;-144.99;36.92;52205.53;5001047;28;20395;-75
2021/04/16 09:46:00;;;;;;;;;;;;;;;-144.99;35.87;52219.81;5012851;28;20371;-75
2021/04/16 09:48:45;;;;;;;;;;;;;;;-144.99;36.66;52203.50;5006799;28;19968;-75
2021/04/16 09:51:19;;;;;;;;;;;;;;;-144.99;36.13;52205.53;5007007;28;20328;-76
2021/04/16 09:54:12;;;;;;;;;;;;;;;-144.99;35.64;52219.81;5010919;28;20019;-76
2021/04/16 09:56:39;;;;;;;;;;;;;;;-144.99;35.12;52181.09;5014499;28;20331;-77
2021/04/16 09:59:06;;;;;;;;;;;;;;;-144.99;35.37;52211.66;5014579;28;19992;-73
2021/04/16 10:01:32;;;;;;;;;;;;;;;-144.99;35.27;52195.34;5016718;28;19975;-79
2021/04/16 10:04:00;;;;;;;;;;;;;;;-144.99;35.00;52166.81;5018204;28;19922;-76
2021/04/16 10:06:28;;;;;;;;;;;;;;;-144.99;34.58;52183.13;5014513;28;19936;-77
2021/04/16 10:09:31;;;;;;;;;;;;;;;-144.99;34.54;52199.44;5015313;28;19921;-76
2021/04/16 10:11:59;;;;;;;;;;;;;;;-144.99;34.13;52195.34;5017162;28;20020;-76
2021/04/16 10:14:30;;;;;;;;;;;;;;;-144.99;33.89;52189.25;5013711;28;20039;-77
2021/04/16 10:16:59;;;;;;;;;;;;;;;-144.99;34.02;52170.91;5010196;28;19926;-77
2021/04/16 10:19:26;;;;;;;;;;;;;;;-144.99;33.32;52134.22;5009797;28;19922;-75
2021/04/16 10:21:52;;;;;;;;;;;;;;;-144.99;33.04;52097.53;5010314;28;19926;-77
2021/04/16 12:38:32;;;;;;;;;;;;;;;-144.99;27.93;51989.50;5008163;28;19926;-77
2021/04/16 12:40:59;;;;;;;;;;;;;;;-144.99;27.57;52048.63;5007812;28;19948;-74
2021/04/16 12:43:25;;;;;;;;;;;;;;;-144.99;27.51;52024.16;5016053;28;19925;-78
2021/04/16 12:45:53;;;;;;;;;;;;;;;-144.99;27.79;52026.19;5016136;28;19945;-76
2021/04/16 12:48:20;;;;;;;;;;;;;;;-144.99;27.45;51979.31;5007693;28;19966;-78
2021/04/16 12:50:46;;;;;;;;;;;;;;;-144.99;27.64;52060.84;5008803;28;20028;-75
2021/04/16 12:53:12;;;;;;;;;;;;;;;-144.99;27.45;51979.31;5007337;28;19925;-77
2021/04/16 12:55:38;;;;;;;;;;;;;;;-144.99;27.64;51999.69;5006548;28;19993;-75
2021/04/16 12:58:05;;;;;;;;;;;;;;;-144.99;27.84;52040.47;5008012;28;19929;-75
2021/04/16 13:00:34;;;;;;;;;;;;;;;-144.99;28.20;52032.31;5007457;28;20384;-74
2021/04/16 13:03:02;;;;;;;;;;;;;;;-144.99;28.10;52044.53;5004585;28;20251;-75
2021/04/16 13:05:29;;;;;;;;;;;;;;;-144.99;27.78;52020.09;5007813;28;19929;-75
2021/04/16 13:07:55;;;;;;;;;;;;;;;-144.99;27.96;52046.56;5007256;28;19933;-74
2021/04/16 13:10:22;;;;;;;;;;;;;;;-144.99;27.49;52089.38;5008306;28;19921;-75
2021/04/16 13:12:48;;;;;;;;;;;;;;;-144.99;28.28;52054.72;5004796;28;19951;-76
2021/04/16 13:15:14;;;;;;;;;;;;;;;-144.99;28.21;52044.53;5002036;28;19921;-74
2021/04/16 13:17:42;;;;;;;;;;;;;;;-144.99;28.32;52056.78;5005663;28;19921;-77
2021/04/16 13:20:11;;;;;;;;;;;;;;;-144.99;28.29;52113.84;5010665;28;19928;-78
2021/04/16 13:22:37;;;;;;;;;;;;;;;-144.99;28.45;52089.38;5011487;28;20016;-76
2021/04/16 13:25:03;;;;;;;;;;;;;;;-144.99;28.98;52073.06;5016092;28;19931;-76
2021/04/16 13:27:31;;;;;;;;;;;;;;;-144.99;28.62;52079.19;5007767;28;20307;-76
2021/04/16 13:29:57;;;;;;;;;;;;;;;-144.99;28.94;52085.31;5006269;28;20326;-76
2021/04/16 13:32:24;;;;;;;;;;;;;;;-144.99;29.44;52097.53;5004867;28;19973;-79
2021/04/16 13:34:53;;;;;;;;;;;;;;;-144.99;28.32;52093.44;5007081;28;19929;-74
2021/04/16 13:37:20;;;;;;;;;;;;;;;-144.99;28.76;52158.66;5006290;28;19995;-76
2021/04/16 13:39:47;;;;;;;;;;;;;;;-144.99;28.99;52121.97;5007678;28;19965;-76
2021/04/16 13:42:14;;;;;;;;;;;;;;;-144.99;29.08;52097.53;5007100;28;20312;-77
2021/04/16 13:44:40;;;;;;;;;;;;;;;-144.99;29.34;52130.13;5006198;28;19933;-76
2021/04/16 13:47:07;;;;;;;;;;;;;;;-144.99;29.35;52150.53;5001019;28;20177;-75
2021/04/16 13:49:35;;;;;;;;;;;;;;;-144.99;29.13;52093.44;5006113;28;19925;-76
2021/04/16 13:52:00;;;;;;;;;;;;;;;-144.99;29.15;52126.06;5006528;28;19925;-76
2021/04/16 13:54:27;;;;;;;;;;;;;;;-144.99;28.96;52138.28;5010655;28;20011;-75
2021/04/16 13:56:53;;;;;;;;;;;;;;;-144.99;28.80;52109.75;5004222;28;19929;-73
2021/04/16 13:59:19;;;;;;;;;;;;;;;-144.99;29.02;52126.06;5005675;28;20275;-77
2021/04/16 14:01:45;;;;;;;;;;;;;;;-144.99;28.98;52154.59;5006918;28;19925;-75
2021/04/16 14:04:18;;;;;;;;;;;;;;;-144.99;29.44;52146.44;5006780;28;19925;-75
2021/04/16 14:06:44;;;;;;;;;;;;;;;-144.99;29.37;52158.66;5004721;28;20015;-75
2021/04/16 14:09:11;;;;;;;;;;;;;;;-144.99;29.30;52146.44;5006945;28;20310;-75
2021/04/16 14:11:38;;;;;;;;;;;;;;;-144.99;29.55;52183.13;5006512;28;19921;-75
2021/04/16 14:14:05;;;;;;;;;;;;;;;-144.99;28.87;52138.28;5008833;28;19939;-77
2021/04/16 14:16:33;;;;;;;;;;;;;;;-144.99;29.17;52150.53;5004784;28;19925;-73
2021/04/16 14:19:00;;;;;;;;;;;;;;;-144.99;29.08;52170.91;5006147;28;19928;-76
2021/04/16 14:21:27;;;;;;;;;;;;;;;-144.99;28.82;52174.97;5003054;28;19987;-76
2021/04/16 14:23:53;;;;;;;;;;;;;;;-144.99;28.83;52174.97;5002735;28;19925;-76
2021/04/16 14:26:19;;;;;;;;;;;;;;;-144.99;29.08;52199.44;5005344;28;19944;-76
2021/04/16 14:28:46;;;;;;;;;;;;;;;-144.99;29.59;52166.81;5006220;28;19921;-76
2021/04/16 14:31:13;;;;;;;;;;;;;;;-144.99;30.11;52154.59;5005569;28;20026;-75
2021/04/16 14:33:39;;;;;;;;;;;;;;;-144.99;29.55;52179.06;5006127;28;19929;-76
2021/04/16 14:36:06;;;;;;;;;;;;;;;-144.99;29.65;52211.66;5006030;28;19957;-73
2021/04/16 14:38:33;;;;;;;;;;;;;;;-144.99;29.70;52199.44;5006165;28;20439;-76
2021/04/16 14:40:59;;;;;;;;;;;;;;;-144.99;30.30;52179.06;5005427;28;19925;-74
2021/04/16 14:43:26;;;;;;;;;;;;;;;-144.99;30.48;52183.13;5004319;28;19932;-75